x

9441102 - Westport, Wa (wptw1) Weather Station

5:36 - Thu 19th Jan 2017 All times are PST. -8 hours from GMT.

  • Wind
    16mph, 24mph gusts
  • Sea Temp 48°f
  • Ar Temp 47°f
  • Sea Pressure 996.2mb
  • 9441102 - Westport, Wa
  • 9441102 - Westport, Wa

More Historic Weather Station data

Upgrade to MSW Pro to gain access to the past 30 days of data for over 8000 Wavebouys and Weather Stations around the globe.

Join Pro

Comparision Forecast

View Surf forecast
   
Qui 01/19 5:36 16 24 mph 996.2mb 48f 47f
5:30 14 23 mph 996.1mb 48f 47f
5:24 15 23 mph 996.1mb 47f 47f
5:18 16 22 mph 996mb 47f 47f
5:12 14 25 mph 996mb 47f 47f
5:06 15 22 mph 996mb 47f 47f
5:00 15 22 mph 996mb 47f 47f
4:36 20 25 mph 996mb 47f 47f
4:30 15 22 mph 996mb 47f 47f
4:24 15 26 mph 996mb 47f 47f
4:18 13 18 mph 996mb 47f 47f
4:12 13 21 mph 996mb 47f 47f
4:06 16 24 mph 996mb 47f 47f
4:00 15 22 mph 996mb 47f 47f
3:36 16 23 mph 995.7mb 47f 48f
3:30 20 26 mph 995.7mb 47f 48f
3:24 20 26 mph 995.7mb 47f 48f
3:18 18 30 mph 995.7mb 47f 48f
3:12 22 29 mph 995.8mb 47f 48f
3:06 20 28 mph 995.8mb 47f 48f
3:00 16 22 mph 995.8mb 47f 47f
2:36 17 26 mph 995.8mb 47f 47f
2:30 15 22 mph 995.6mb 47f 47f
2:24 15 24 mph 995.6mb 47f 47f
2:18 15 23 mph 995.5mb 47f 47f
2:12 15 23 mph 995.4mb 47f 48f
2:06 17 25 mph 995.3mb 47f 48f
2:00 20 29 mph 995.2mb 47f 48f
1:36 17 23 mph 994.9mb 47f 48f
1:30 16 24 mph 994.8mb 47f 48f
1:24 17 24 mph 994.7mb 47f 48f
1:18 15 21 mph 994.7mb 47f 48f
1:12 13 20 mph 994.6mb 47f 48f
1:06 15 22 mph 994.5mb 47f 48f
1:00 16 23 mph 994.4mb 46f 48f
12:36 16 24 mph 994.3mb 46f 47f
12:30 18 26 mph 994.1mb 46f 48f
12:24 13 22 mph 994mb 46f 48f
12:18 14 21 mph 993.9mb 46f 48f
12:12 13 20 mph 993.8mb 46f 48f
12:06 14 21 mph 993.8mb 47f 48f
12:00 13 20 mph 993.8mb 47f 48f
Qua 01/18 11:36 14 24 mph 993.6mb 47f 47f
11:30 21 25 mph 993.5mb 47f 47f
11:24 15 21 mph 993.4mb 47f 49f
11:18 15 20 mph 993.3mb 47f 49f
11:12 17 22 mph 993.2mb 47f 49f
11:06 16 22 mph 993.2mb 47f 49f
11:00 17 23 mph 993mb 47f 49f
10:36 14 21 mph 992.6mb 47f 48f
10:30 15 20 mph 992.5mb 47f 48f
10:24 13 16 mph 992.3mb 47f 47f
10:18 13 21 mph 992.2mb 47f 47f
10:12 11 18 mph 992.1mb 47f 46f
10:06 14 20 mph 992.1mb 47f 46f
10:00 14 20 mph 992mb 47f 46f
9:36 14 21 mph 991.7mb 47f 47f
9:30 16 22 mph 991.6mb 47f 47f
9:24 15 20 mph 991.6mb 47f 47f
9:18 13 20 mph 991.4mb 47f 47f
9:12 13 18 mph 991.4mb 47f 47f
9:06 14 22 mph 991.5mb 47f 47f
9:00 16 21 mph 991.4mb 47f 47f
8:36 18 24 mph 990.9mb 47f 47f
8:30 17 26 mph 990.8mb 47f 47f
8:24 16 22 mph 990.7mb 46f 47f
8:18 14 21 mph 990.6mb 46f 47f
8:12 14 20 mph 990.5mb 46f 47f
8:06 14 17 mph 990.3mb 46f 47f
8:00 14 17 mph 990.2mb 46f 47f
7:36 11 16 mph 989.7mb 46f 47f
7:30 11 16 mph 989.7mb 46f 46f
7:24 10 14 mph 989.6mb 46f 47f
7:18 9 13 mph 989.5mb 46f 47f
7:12 9 13 mph 989.5mb 46f 47f
7:06 8 10 mph 989.4mb 46f 47f
7:00 9 14 mph 989.3mb 46f 48f
6:36 8 11 mph 989.2mb 46f 48f
6:30 7 13 mph 989.1mb 46f 48f
6:24 7 11 mph 989.1mb 46f 48f
6:18 8 13 mph 989.1mb 46f 48f
6:12 9 13 mph 989.1mb 46f 48f
6:06 8 11 mph 989.1mb 46f 48f
6:00 8 13 mph 989.1mb 46f 48f
5:36 9 15 mph 989mb 46f 49f
5:30 9 14 mph 989mb 46f 49f
5:24 8 14 mph 989mb 46f 49f
5:18 8 14 mph 989mb 46f 49f
5:12 8 15 mph 989.1mb 46f 49f
5:06 9 14 mph 989.1mb 46f 49f
5:00 10 16 mph 989.1mb 46f 49f
4:36 11 16 mph 989.3mb 46f 49f
4:30 10 17 mph 989.4mb 46f 49f
4:24 11 15 mph 989.5mb 46f 49f
4:18 10 16 mph 989.5mb 46f 49f
4:12 10 17 mph 989.7mb 47f 49f
4:06 13 17 mph 989.8mb 46f 49f
4:00 14 21 mph 989.9mb 46f 49f
3:36 10 17 mph 990.1mb 46f 49f
3:30 10 17 mph 990.1mb 46f 49f
3:24 11 16 mph 990.3mb 46f 49f
3:18 13 16 mph 990.3mb 46f 49f
3:12 11 18 mph 990.4mb 46f 49f
3:06 10 21 mph 990.5mb 46f 49f
3:00 11 22 mph 990.6mb 46f 49f
2:36 15 26 mph 990.6mb 46f 50f
2:30 14 21 mph 990.6mb 46f 49f
2:24 15 23 mph 990.7mb 46f 49f
2:18 15 23 mph 990.9mb 46f 49f
2:12 14 25 mph 990.9mb 46f 49f
2:06 15 24 mph 990.9mb 46f 49f
2:00 16 24 mph 991mb 46f 49f
1:36 17 24 mph 991.3mb 46f 49f
1:30 16 23 mph 991.4mb 46f 50f
1:24 17 28 mph 991.5mb 46f 50f
1:18 20 30 mph 991.7mb 46f 50f
1:12 15 25 mph 991.4mb 46f 50f
1:06 18 26 mph 991.5mb 46f 50f
1:00 21 33 mph 991.6mb 46f 50f
12:36 18 26 mph 991.7mb 46f 50f
12:30 20 31 mph 991.7mb 46f 50f
12:24 21 32 mph 991.6mb 46f 50f
12:18 21 31 mph 991.5mb 46f 50f
12:12 22 32 mph 991.7mb 46f 50f
12:06 22 31 mph 991.6mb 46f 50f
12:00 20 29 mph 991.5mb 46f 50f
11:36 17 31 mph 991.7mb 46f 50f
11:30 22 32 mph 991.8mb 46f 50f
11:24 21 34 mph 991.9mb 46f 50f
11:18 23 31 mph 991.8mb 46f 50f
11:12 22 32 mph 991.9mb 46f 50f
11:06 21 31 mph 991.9mb 46f 50f
11:00 24 37 mph 991.8mb 46f 50f
10:36 18 32 mph 991.9mb 46f 50f
10:30 23 37 mph 991.9mb 46f 51f
10:24 22 32 mph 991.7mb 46f 51f
10:18 21 31 mph 991.6mb 46f 51f
10:12 20 30 mph 991.7mb 46f 50f
10:06 23 31 mph 991.7mb 46f 50f
10:00 23 36 mph 991.7mb 46f 50f
9:36 24 39 mph 991.4mb 46f -
9:30 23 37 mph 991.3mb 46f -
9:24 24 36 mph 991.4mb 46f -
9:18 22 38 mph 991.3mb 46f -
9:12 24 34 mph 991.1mb 46f -
9:06 22 37 mph 991.2mb 46f -
9:00 28 38 mph 991.2mb 46f -
8:36 23 36 mph 991mb 46f 50f
8:30 24 36 mph 991.1mb 46f 50f
8:24 22 32 mph 991.2mb 46f 50f
8:18 24 33 mph 991.1mb 46f 50f
8:12 25 36 mph 991mb 46f 50f
8:06 25 38 mph 991mb 46f 51f
8:00 25 34 mph 990.8mb 46f 51f
7:36 25 43 mph 990.5mb 46f 50f
7:30 29 47 mph 990.4mb 46f 50f
7:24 26 43 mph 990.3mb 46f 50f
7:18 26 41 mph 990.3mb 46f 50f
7:12 30 44 mph 990.1mb 46f 50f
7:06 28 43 mph 990.1mb 46f 50f
7:00 29 43 mph 990.2mb 46f 50f
6:36 29 43 mph 990.1mb 46f 50f
6:30 28 41 mph 989.9mb 46f 50f
6:24 21 31 mph 990mb 46f 50f
6:18 28 40 mph 990.2mb 46f 50f
6:12 24 38 mph 990.1mb 46f 50f
6:06 24 38 mph 990.2mb 46f 50f
6:00 22 34 mph 990.4mb 46f 50f
5:54 21 34 mph 990.3mb 46f 51f
5:48 23 36 mph 990.5mb 46f 51f
5:36 24 36 mph 990.8mb 46f 50f
5:30 23 37 mph 991mb 46f 50f
5:24 22 30 mph 991.2mb 46f 50f
5:18 21 33 mph 991.3mb 46f 49f
5:12 24 36 mph 991.5mb 46f 49f
5:06 22 31 mph 991.7mb 46f 49f
5:00 21 36 mph 991.8mb 46f 49f
4:54 22 34 mph 991.9mb 46f 49f
4:48 25 40 mph 992mb 46f 49f
4:36 22 33 mph 992.4mb 46f 49f
4:30 24 33 mph 992.5mb 46f 49f
4:24 22 31 mph 992.7mb 46f 49f
4:18 18 29 mph 992.6mb 46f 49f
4:12 18 31 mph 992.8mb 46f 49f
4:06 23 38 mph 992.8mb 46f 49f
4:00 21 32 mph 992.8mb 46f 49f
3:54 20 29 mph 993mb 46f 49f
3:48 17 26 mph 993.2mb 46f 49f
3:36 20 30 mph 993.3mb 46f 49f
3:30 16 26 mph 993.5mb 46f 49f
3:24 14 24 mph 993.7mb 46f 49f
3:18 15 24 mph 993.9mb 46f 49f
3:12 16 26 mph 994.1mb 46f 49f
3:06 15 23 mph 994.2mb 46f 49f
3:00 16 26 mph 994.3mb 46f 49f
2:54 14 24 mph 994.4mb 46f 49f
2:48 16 28 mph 994.5mb 46f 49f
2:36 17 25 mph 994.6mb 46f 49f
2:30 17 26 mph 994.7mb 46f 49f
2:24 18 29 mph 994.8mb 46f 49f
2:18 18 26 mph 995mb 46f 49f
2:12 17 28 mph 995mb 46f 49f
2:06 17 24 mph 995.1mb 46f 49f
2:00 17 24 mph 995.3mb 46f 49f
1:54 18 28 mph 995.5mb 46f 49f
1:48 18 25 mph 995.6mb 46f 49f
1:36 18 28 mph 995.6mb 46f 49f
1:30 22 31 mph 995.6mb 46f 49f
1:24 20 29 mph 995.7mb 46f 49f
1:18 20 31 mph 995.8mb 46f 49f
1:12 21 30 mph 995.8mb 46f 49f
1:06 22 29 mph - - 49f
1:00 22 34 mph 995.7mb 46f 49f
12:54 22 32 mph 996mb 46f 49f
12:48 21 31 mph 995.9mb 46f 49f
12:36 23 32 mph 996mb 46f 49f
12:30 20 28 mph 995.9mb 46f 49f
12:24 22 37 mph 996.1mb 46f 49f
12:18 23 34 mph 996mb 46f 49f
12:12 21 37 mph 996mb 46f 49f
12:06 24 37 mph 996.1mb 46f 49f
12:00 25 39 mph 996.3mb 46f 49f
Ter 01/17 11:54 25 37 mph 996.4mb 46f 50f
11:48 25 39 mph 996.4mb 46f 50f
11:36 26 39 mph 995.8mb 46f 50f
11:30 28 41 mph 996.1mb 46f 50f
11:24 24 34 mph 996.2mb 46f 50f
11:18 23 36 mph 995.9mb 46f 50f
11:12 20 31 mph 996mb 46f 49f
11:06 21 31 mph 996.6mb 46f 49f
11:00 21 29 mph 996.9mb 46f 49f
10:54 21 30 mph 997.2mb 46f 49f
10:48 21 31 mph 997.3mb 46f 49f
10:36 24 31 mph 996.7mb 46f 49f
10:30 23 33 mph 996.5mb 46f 49f
10:24 22 36 mph 996.6mb 46f 49f
10:18 22 34 mph 996.9mb 46f 49f
10:12 23 34 mph 997mb 46f 49f
10:06 21 38 mph 996.9mb 46f 49f
10:00 21 43 mph - - 49f
9:54 25 39 mph 996.7mb 46f 49f
9:48 26 38 mph 996.8mb 46f 49f
9:36 28 37 mph 996.3mb 46f 49f
9:30 24 36 mph 996.4mb 46f 49f
9:24 28 40 mph 996.4mb 46f 49f
9:18 25 38 mph 996.6mb 46f 49f
9:12 25 40 mph 996.5mb 46f 49f
9:06 24 34 mph 996.5mb 46f 49f
9:00 26 37 mph 996.6mb 46f 49f
8:54 25 36 mph 996.8mb 46f 49f
8:48 28 38 mph 996.9mb 46f 49f
8:36 23 34 mph 997.1mb 46f 48f
8:30 25 36 mph 997.2mb 46f 49f
8:24 24 39 mph 997.2mb 46f 49f
8:18 25 37 mph 997.2mb 46f 48f
8:12 23 34 mph 996.9mb 46f 48f
8:06 23 39 mph 997.1mb 46f 49f
8:00 24 40 mph 997mb 46f 49f
7:54 28 38 mph 997mb 46f 49f
7:48 29 46 mph 996.8mb 46f 49f
7:36 24 38 mph 996.9mb 46f 49f
7:30 26 39 mph 996.9mb 46f 49f
7:24 29 43 mph 996.9mb 46f 48f
7:18 29 40 mph 996.8mb 46f 49f
7:12 30 39 mph 996.7mb 46f 48f
7:06 26 43 mph 996.7mb 46f 48f
7:00 30 47 mph 996.7mb 46f 48f
6:54 29 51 mph 996.7mb 46f 49f
6:48 30 46 mph 996.6mb 46f 49f
6:36 28 41 mph 996.5mb 46f 48f
6:30 30 48 mph 996.5mb 46f 48f
6:24 33 47 mph 996.6mb 46f 48f
6:18 36 49 mph 996.4mb 46f 48f
6:12 33 44 mph 996.5mb 46f 48f
6:06 29 44 mph 996.5mb 46f 48f
6:00 31 48 mph 996.5mb 46f 48f
5:54 31 46 mph 996.5mb 46f 48f
5:48 31 46 mph 996.6mb 46f 49f
5:36 29 46 mph 996.7mb 46f 49f
5:30 31 45 mph 996.7mb 46f 49f
5:24 31 49 mph 996.8mb 46f 49f
5:18 29 44 mph 996.9mb 46f 49f
5:12 28 49 mph 996.8mb 46f 49f
5:06 28 41 mph 996.9mb 46f 48f
5:00 30 44 mph 997mb 46f 48f
4:54 30 48 mph 997.1mb 46f 49f
4:48 33 51 mph 997.1mb 46f 49f
4:36 31 47 mph 997.2mb 46f 49f
4:30 30 44 mph 997.2mb 46f 49f
4:24 32 45 mph 997.3mb 46f 49f
4:18 29 46 mph 997.2mb 46f 49f
4:12 31 48 mph 997.4mb 46f 49f
4:06 29 40 mph 997.2mb 46f 49f
4:00 32 46 mph 997.3mb 46f 49f
3:54 31 48 mph 997.4mb 46f 49f
3:48 32 46 mph 997.5mb 46f 49f
3:36 29 44 mph 997.7mb 46f 49f
3:30 26 46 mph 997.7mb 46f 49f
3:24 25 38 mph 997.7mb 46f 49f
3:18 26 38 mph 998mb 46f 48f
3:12 29 44 mph 997.9mb 46f 48f
3:06 25 41 mph 998.1mb 46f 48f
3:00 24 33 mph 998mb 46f 48f
2:54 24 45 mph 998.1mb 46f 48f
2:48 26 40 mph 998.3mb 46f 49f
2:36 28 40 mph 998.6mb 46f 49f
2:30 24 43 mph 998.4mb 46f 49f
2:24 23 38 mph 998.5mb 46f 48f
2:18 24 37 mph 998.7mb 46f 49f
2:12 22 36 mph 999.2mb 46f 49f
2:06 21 33 mph 999.4mb 45f 48f
2:00 22 37 mph 999.8mb 46f 48f
1:54 22 39 mph 1000mb 46f 48f
1:48 22 34 mph 999.8mb 46f 48f
1:36 18 31 mph 1000.2mb 46f 47f
1:30 20 38 mph 1000.3mb 46f 48f
1:24 29 45 mph 1000.4mb 46f 48f
1:18 17 30 mph 1000.7mb 46f 47f
1:12 22 36 mph 1000.9mb 46f 47f
1:06 21 36 mph 1001.3mb 46f 47f
1:00 24 38 mph 1001.6mb 46f 48f
12:54 22 33 mph 1001.9mb 46f 48f
12:48 20 34 mph 1001.8mb 45f 48f
12:36 14 29 mph 1002.5mb 45f 49f
12:30 22 37 mph 1002.9mb 46f 50f
12:24 20 29 mph 1003mb 46f 50f
12:18 24 34 mph 1003.3mb 46f 50f
12:12 21 32 mph 1003.3mb 46f 51f
12:06 22 31 mph 1003.5mb 46f 51f
12:00 20 29 mph 1003.6mb 46f 50f
11:54 22 33 mph 1003.7mb 46f 50f
11:48 18 32 mph 1003.9mb 46f 50f
11:36 17 26 mph 1004mb 46f 50f
11:30 17 30 mph 1004mb 46f 50f
11:24 20 31 mph 1004.2mb 46f 49f
11:18 20 30 mph 1004.6mb 46f 49f
11:12 20 34 mph 1004.8mb 46f 49f
11:06 16 32 mph 1004.8mb 46f 49f
11:00 16 25 mph 1004.7mb 46f 49f
10:54 15 32 mph 1004.6mb 46f 48f
10:48 16 25 mph 1004.7mb 46f 48f
10:36 21 31 mph 1005mb 46f 48f
10:30 21 32 mph 1004.9mb 46f 48f
10:24 18 31 mph 1005.2mb 46f 48f
10:18 22 36 mph 1005.5mb 46f 47f
10:12 18 30 mph 1005.5mb 45f 47f
10:06 22 29 mph 1005.5mb 45f 47f
10:00 22 29 mph 1005.5mb 45f 48f
9:54 21 30 mph 1005.4mb 45f 48f
9:48 18 31 mph 1005.3mb 45f 48f
9:36 22 34 mph 1005.2mb 46f 50f
9:30 21 33 mph 1005.2mb 46f 50f
9:24 22 32 mph 1005.2mb 45f 51f
9:18 18 33 mph 1005mb 46f 51f
9:12 18 32 mph 1005mb 46f 51f
9:06 18 33 mph 1005.1mb 46f 51f
9:00 23 36 mph 1005.1mb 45f 51f
8:54 21 33 mph 1004.7mb 45f 51f
8:48 23 33 mph 1004.8mb 45f 51f
8:36 21 31 mph 1004.8mb 45f 50f
8:30 24 33 mph 1005mb 45f 50f
8:24 23 31 mph 1005mb 45f 50f
8:18 24 34 mph 1005.3mb 45f 50f
8:12 17 32 mph 1005.3mb 45f 50f
8:06 22 29 mph 1005.1mb 45f 50f
8:00 22 33 mph 1004.9mb 45f 50f
7:54 20 31 mph 1004.9mb 45f 49f
7:48 17 26 mph 1005.1mb 45f 49f
7:36 24 31 mph 1005mb 46f 49f
7:30 21 30 mph 1005.1mb 46f 50f
7:24 20 30 mph 1005.2mb 46f 50f
7:18 21 33 mph 1005.2mb 46f 50f
7:12 18 28 mph 1005.2mb 46f 50f
7:06 20 30 mph 1005.2mb 46f 50f
7:00 17 29 mph 1005.3mb 46f 49f
6:54 23 36 mph 1005.4mb 46f 50f
6:48 21 30 mph 1005.4mb 46f 49f
6:36 18 30 mph 1005.6mb 46f 48f
6:30 20 28 mph 1005.9mb 46f 48f
6:24 18 28 mph 1005.9mb 46f 48f
6:18 15 29 mph 1006mb 46f 48f
6:12 21 29 mph 1006.1mb 46f 49f
6:06 16 31 mph 1006.4mb 46f 49f
6:00 15 28 mph 1006.6mb 46f 49f
5:54 14 20 mph 1006.7mb 46f 49f
5:48 14 28 mph 1006.8mb 46f 49f
5:36 15 21 mph 1007mb 46f 49f
5:30 17 25 mph 1007.1mb 46f 50f
5:24 14 26 mph 1007.1mb 46f 50f
5:18 20 29 mph 1007.2mb 46f 50f
5:12 20 31 mph 1007.4mb 46f 50f
5:06 20 31 mph 1007.4mb 46f 50f
5:00 20 34 mph 1007.4mb 46f 50f
4:54 22 32 mph 1007.4mb 46f 50f
4:48 18 26 mph 1007.6mb 46f 49f
4:36 17 26 mph 1008mb 46f 49f
4:30 18 29 mph 1007.9mb 46f 49f
4:24 17 26 mph 1008.3mb 46f 49f
4:18 16 26 mph 1008.4mb 46f 49f
4:12 17 25 mph 1008.3mb 46f 49f
4:06 17 26 mph 1008.5mb 46f 50f
4:00 17 31 mph 1008.4mb 46f 50f
3:54 20 31 mph 1008.3mb 46f 51f
3:48 21 33 mph 1008.3mb 46f 50f
3:36 21 32 mph 1008.2mb 46f 51f
3:30 20 33 mph 1008.3mb 46f 51f
3:24 17 28 mph 1008.7mb 46f 51f
3:18 20 32 mph 1008.8mb 46f 51f
3:12 22 31 mph 1009.1mb 46f 51f
3:06 21 33 mph 1009.2mb 46f 51f
3:00 20 30 mph 1009.3mb 46f 51f
2:54 21 30 mph 1009.6mb 46f 51f
2:48 18 29 mph 1010.1mb 46f 51f
2:36 17 32 mph 1010.2mb 46f 51f
2:30 18 32 mph 1010.5mb 46f 52f
2:24 21 29 mph 1010.8mb 45f 52f
2:18 17 25 mph 1011mb 45f 52f
2:12 21 30 mph 1010.9mb 45f 52f
2:06 17 25 mph 1011mb 45f 51f
2:00 16 26 mph 1011.1mb 45f 51f
1:54 15 23 mph 1011.3mb 45f 51f
1:48 11 20 mph 1011.4mb 45f 51f
1:36 13 23 mph 1011.5mb 45f 51f
1:30 9 20 mph 1011.4mb 45f 51f
1:24 9 16 mph 1011.4mb 45f 51f
1:18 9 14 mph 1011.4mb 45f 49f
1:12 8 13 mph 1011.3mb 45f 47f
1:06 7 11 mph 1011.2mb 45f 45f
1:00 10 13 mph 1011.2mb 45f 46f
12:54 9 13 mph 1011.2mb 45f 46f
12:48 9 10 mph 1011.1mb 45f 45f
12:36 7 10 mph 1011.3mb 45f 44f
12:30 9 11 mph 1011.4mb 45f 45f
12:24 8 11 mph 1011.3mb 45f 44f
12:18 10 11 mph 1011.2mb 45f 45f
12:12 9 14 mph 1011.3mb 45f 45f
12:06 10 14 mph 1011.4mb 45f 45f
12:00 9 13 mph 1011.6mb 45f 45f
Seg 01/16 11:54 9 13 mph 1011.6mb 45f 44f
11:48 9 13 mph 1011.7mb 45f 45f
11:36 11 15 mph 1011.7mb 45f 45f
11:30 11 16 mph 1011.8mb 45f 45f
11:24 10 13 mph 1011.9mb 45f 44f
11:18 10 13 mph 1012mb 45f 45f
11:12 10 13 mph 1012mb 45f 44f
11:06 9 11 mph 1012.1mb 45f 44f
11:00 9 14 mph 1012mb 45f 45f
10:54 10 15 mph 1012mb 45f 45f
10:48 11 14 mph 1012.1mb 45f 44f
10:36 10 14 mph 1012.3mb 45f 46f
10:30 10 13 mph 1012.4mb 45f 46f
10:24 9 11 mph 1012.4mb 45f 45f
10:18 9 13 mph 1012.4mb 45f 46f
10:12 9 11 mph 1012.5mb 45f 45f
10:06 9 14 mph 1012.6mb 45f 45f
10:00 11 14 mph 1012.6mb 45f 45f
9:54 10 13 mph 1012.8mb 45f 45f
9:48 8 11 mph 1012.9mb 45f 46f
9:36 9 13 mph 1012.9mb 45f 46f
9:30 10 13 mph 1012.9mb 45f 46f
9:24 10 14 mph 1013.2mb 45f 46f
9:18 10 13 mph 1013.2mb 45f 46f
9:12 10 11 mph 1013.3mb 45f 46f
9:06 9 14 mph 1013.5mb 45f 48f
9:00 9 11 mph 1013.6mb 45f 48f
8:54 8 13 mph 1013.6mb 45f 47f
8:48 10 13 mph 1013.7mb 45f 46f
8:36 9 11 mph 1013.9mb 45f 47f
8:30 8 11 mph 1014mb 45f 46f
8:24 7 11 mph 1014.1mb 45f 46f
8:18 8 10 mph 1014.1mb 45f 46f
8:12 9 11 mph 1014.1mb 45f 46f
8:06 7 9 mph 1014.3mb 45f 45f
8:00 8 10 mph 1014.3mb 45f 46f
7:54 8 10 mph 1014.3mb 45f 45f
7:48 7 8 mph 1014.3mb 45f 45f
7:36 7 9 mph 1014.5mb 45f 46f
7:30 7 9 mph 1014.5mb 45f 45f
7:24 7 9 mph 1014.5mb 45f 45f
7:18 7 9 mph 1014.5mb 45f 45f
7:12 7 9 mph 1014.6mb 45f 45f
7:06 7 11 mph 1014.4mb 45f 45f
7:00 9 11 mph 1014.5mb 45f 45f
6:54 7 10 mph 1014.8mb 45f 45f
6:48 9 10 mph 1014.9mb 45f 46f
6:36 9 11 mph 1014.8mb 45f 46f
6:30 9 11 mph 1014.9mb 45f 46f
6:24 9 10 mph 1015.2mb 45f 46f
6:18 9 11 mph 1015.1mb 45f 47f
6:12 8 10 mph 1015.4mb 45f 47f
6:06 7
mph
1015.5mb 45f 47f
6:00 5 6 mph 1015.6mb 45f 47f
5:54 3 6 mph 1015.4mb 45f 47f
5:48 5 7 mph 1015.4mb 45f 47f
5:36 6 8 mph 1015.3mb 46f 46f
5:30 6 9 mph 1015.4mb 46f 46f
5:24 8 9 mph 1015.3mb 46f 46f
5:18 8 9 mph 1015.4mb 46f 46f
5:12 7 8 mph 1015.5mb 46f 46f
5:06 7
mph
1015.5mb 46f 47f
5:00 5
mph
1015.7mb 46f 47f
4:54 3 5 mph 1015.7mb 46f 47f
4:48 5 7 mph 1015.7mb 46f 47f
4:36 6 7 mph 1015.6mb 47f 46f
4:30 6
mph
1015.5mb 47f 46f
4:24 5 7 mph 1015.6mb 47f 46f
4:18 3 6 mph 1015.5mb 47f 47f
4:12 6 10 mph 1015.3mb 47f 47f
4:06 11 14 mph 1014.9mb 47f 47f
4:00 13 14 mph 1014.9mb 47f 47f
3:36 8 9 mph 1015.9mb 46f 47f
3:30 7 8 mph 1015.8mb 46f 47f
3:24 6 7 mph 1016.1mb 46f 47f
3:18 6 8 mph 1016mb 46f 48f
3:12 8 9 mph 1015.9mb 46f 48f
3:06 7 8 mph 1016mb 46f 48f
3:00 7 8 mph 1016mb 46f 47f
2:54 6
mph
1016.2mb 46f 47f
2:48 5 6 mph 1016.2mb 46f 48f
2:36 8 11 mph 1015.9mb 46f 47f
2:30 11 14 mph 1016mb 46f 47f
2:24 10 11 mph 1016.4mb 46f 47f
2:18 9 13 mph 1016.3mb 46f 46f
2:12 9 14 mph 1016.4mb 45f 46f
2:06 11 14 mph 1016.4mb 45f 46f
2:00 9 13 mph 1016.6mb 45f 46f
1:54 9 13 mph 1016.6mb 45f 46f
1:48 11 15 mph 1016.7mb 45f 46f
1:36 14 16 mph 1017.2mb 45f 46f
1:30 11 16 mph 1017.4mb 45f 45f
1:24 14 16 mph 1017.7mb 45f 44f
1:18 10 13 mph 1018.1mb 44f 44f
1:12 7 14 mph 1018.2mb 44f 44f
1:06 11 14 mph 1018.2mb 45f 44f
1:00 13 15 mph 1018.1mb 45f 44f
12:54 10 15 mph 1018.2mb 45f 43f
12:48 11 15 mph 1018.5mb 45f 43f
12:36 10 14 mph 1018.6mb 45f 42f
12:30 10 13 mph 1018.8mb 45f 43f
12:24 7 10 mph 1018.9mb 45f 44f
12:18 7 10 mph 1018.9mb 45f 44f
12:12 8 10 mph 1018.8mb 45f 44f
12:06 9 11 mph 1018.7mb 45f 44f
12:00 7 10 mph 1018.7mb 45f 44f
11:54 7 10 mph 1018.8mb 45f 44f
11:48 6 8 mph 1018.7mb 45f 44f
11:36 7 9 mph 1018.9mb 45f 43f
11:30 6 11 mph 1019mb 45f 43f
11:24 9 11 mph 1019.2mb 45f 43f
11:18 8 10 mph 1019.4mb 45f 42f
11:12 3 7 mph 1019.5mb 45f 43f
11:06 6 8 mph 1019.5mb 45f 42f
11:00 8 11 mph 1019.5mb 45f 41f
10:54 9 11 mph 1019.6mb 45f 40f
10:48 9 13 mph 1019.6mb 45f 40f
10:36 11 14 mph 1019.6mb 45f 39f
10:30 10 13 mph 1020.1mb 45f 39f
10:24 9 15 mph 1020.1mb 45f 39f
10:18 14 15 mph 1020.3mb 45f 38f
10:12 11 14 mph 1020.4mb 45f 38f
10:06 9 15 mph 1020.5mb 45f 38f
10:00 13 16 mph 1020.5mb 45f 37f
9:54 14 15 mph 1020.4mb 45f 37f
9:48 11 13 mph 1020.5mb 45f 37f
9:36 8 9 mph 1020.6mb 45f 38f
9:30 7 8 mph 1020.7mb 45f 37f
9:24 6 9 mph 1020.6mb 45f 37f
9:18 7 9 mph 1020.6mb 45f 37f
9:12 7 10 mph 1020.5mb 45f 38f
9:06 8 10 mph 1020.5mb 45f 38f
9:00 8 10 mph 1020.6mb 44f 38f
8:54 6 7 mph 1020.8mb 44f 37f
8:48 2 5 mph 1020.9mb 44f 37f
8:36 2 9 mph 1020.7mb 44f 37f
8:30 9 11 mph 1020.4mb 44f 37f
8:24 9 13 mph 1020.4mb 44f 36f
8:18 11 13 mph 1020.5mb 44f 36f
8:12 10 14 mph 1020.5mb 45f 37f
8:06 13 15 mph 1020.4mb 45f 37f
8:00 13 15 mph 1020.6mb 45f 36f
7:54 11 14 mph 1020.6mb 45f 36f
7:48 11 16 mph 1020.6mb 45f 36f
7:36 15 17 mph 1020.5mb 45f 36f
7:30 14 16 mph 1020.5mb 45f 36f
7:24 14 17 mph 1020.6mb 45f 36f
7:18 15 18 mph 1020.6mb 45f 36f
7:12 15 17 mph 1020.7mb 45f 36f
7:06 14 17 mph 1020.6mb 45f 37f
7:00 15 18 mph 1020.6mb 45f 37f
6:54 15
mph
1020.8mb 45f 37f
6:48 11 13 mph 1020.9mb 45f 36f
6:36 11 16 mph 1020.8mb 45f 37f
6:30 15 17 mph 1020.9mb 45f 37f
6:24 14 16 mph 1021.2mb 45f 37f
6:18 13 16 mph 1021.4mb 45f 37f
6:12 15 17 mph 1021.4mb 45f 37f
6:06 14 16 mph 1021.6mb 45f 36f
6:00 14 17 mph 1021.7mb 45f 37f
5:54 14 16 mph 1021.8mb 46f 37f
5:48 15 16 mph 1021.9mb 46f 37f
5:36 13 14 mph 1021.9mb 47f 37f
5:30 11 15 mph 1022mb 47f 37f
5:24 13 15 mph 1021.9mb 47f 37f
5:18 13 15 mph 1021.9mb 47f 36f
5:12 11 14 mph 1022.1mb 47f 36f
5:06 10 13 mph 1022.1mb 47f 37f
5:00 11 14 mph 1022.2mb 47f 37f
4:54 10 14 mph 1022.3mb 47f 36f
4:48 13 14 mph 1022.5mb 47f 37f
4:36 9 11 mph 1022.7mb 47f 36f
4:30 10 11 mph 1022.8mb 47f 36f
4:24 8 10 mph 1022.9mb 47f 36f
4:18 9 11 mph 1022.8mb 47f 36f
4:12 9 11 mph 1022.9mb 47f 37f
4:06 10 11 mph 1022.9mb 47f 37f
4:00 10
mph
1023.2mb 47f 37f
3:54 7 9 mph 1023.3mb 47f 37f
3:48 7 10 mph 1023.1mb 47f 37f
3:36 9 11 mph 1023.3mb 47f 37f
3:30 9 10 mph 1023.4mb 47f 38f
3:24 8 9 mph 1023.5mb 47f 37f
3:18 8 11 mph 1023.5mb 46f 37f
3:12 11 13 mph 1023.3mb 46f 37f
3:06 9 11 mph 1023.3mb 46f 37f
3:00 8 11 mph 1023.4mb 46f 38f
2:54 7 10 mph 1023.5mb 46f 38f
2:48 9 11 mph 1023.2mb 46f 38f
2:36 8 11 mph 1023.2mb 46f 38f
2:30 9 11 mph 1023.3mb 46f 38f
2:24 11 14 mph 1023.3mb 46f 38f
2:18 11 13 mph 1023.4mb 46f 38f
2:12 9 11 mph 1023.6mb 46f 38f
2:06 7 9 mph 1023.7mb 46f 38f
2:00 7 10 mph 1023.4mb 46f 38f
1:54 8 10 mph 1023.4mb 45f 38f
1:48 7 9 mph 1023.3mb 45f 38f
1:36 8
mph
1023.4mb 44f 38f
1:30 8
mph
1023.3mb 44f 38f
1:24 6 7 mph 1023.4mb 44f 38f
1:18 6 7 mph 1023.5mb 44f 38f
1:12 6
mph
1023.4mb 44f 38f
1:06 6 8 mph 1023.2mb 44f 38f
1:00 8 9 mph 1023.4mb 44f 38f
12:54 8 9 mph 1023.4mb 44f 38f
12:48 5 8 mph 1023.6mb 44f 38f
12:36 3 6 mph 1023.8mb 44f 38f
12:30 5 7 mph 1023.6mb 44f 38f
12:24 7 9 mph 1023.6mb 44f 38f
12:18 9 11 mph 1023.5mb 44f 38f
12:12 10 11 mph 1023.6mb 44f 38f
12:06 8 10 mph 1023.6mb 44f 38f
12:00 9 10 mph 1023.5mb 44f 38f
Dom 01/15 11:54 9 11 mph 1023.3mb 44f 37f
11:48 9 13 mph 1023.3mb 44f 37f
11:36 13 15 mph 1023.6mb 45f 37f
11:30 9 11 mph 1023.9mb 45f 37f
11:24 8 10 mph 1024mb 45f 37f
11:18 8 10 mph 1024mb 45f 37f
11:12 7 10 mph 1024.1mb 45f 37f
11:06 9 10 mph 1024mb 45f 37f
11:00 8 15 mph 1023.8mb 45f 37f
10:54 11 15 mph 1023.8mb 45f 37f
10:48 13 15 mph 1023.8mb 45f 37f
10:36 14 15 mph 1023.9mb 44f 37f
10:30 13 15 mph 1024.3mb 44f 37f
10:24 9 10 mph 1024.5mb 44f 37f
10:18 8 9 mph 1024.7mb 44f 37f
10:12 5 7 mph 1024.9mb 44f 37f
10:06 3 7 mph 1024.8mb 44f 37f
10:00 6 8 mph 1025mb 44f 37f
9:54 5 7 mph 1024.9mb 44f 38f
9:48 7 9 mph 1024.7mb 44f 38f
9:36 7 9 mph 1024.7mb 44f 37f
9:30 9 11 mph 1024.6mb 44f 37f
9:24 9 11 mph 1024.5mb 44f 37f
9:18 11
mph
1024.5mb 44f 37f
9:12 10 13 mph 1024.4mb 44f 37f
9:06 11 13 mph 1024.5mb 44f 37f
9:00 10 11 mph 1024.5mb 44f 37f
8:54 9 10 mph 1024.7mb 44f 37f
8:48 9 13 mph 1024.5mb 44f 38f
8:36 11 14 mph 1024.4mb 44f 39f
8:30 10 13 mph 1024.4mb 44f 38f
8:24 11 15 mph 1024.4mb 44f 38f
8:18 10 14 mph 1024.5mb 44f 38f
8:12 10 13 mph 1024.5mb 44f 38f
8:06 10 14 mph 1024.5mb 44f 39f
8:00 13 15 mph 1024.4mb 44f 39f
7:54 10 13 mph 1024.5mb 44f 39f
7:48 8 9 mph 1024.5mb 44f 40f
7:36 9 10 mph 1024.4mb 45f 40f
7:30 10 13 mph 1024.4mb 45f 40f
7:24 9 11 mph 1024.5mb 45f 40f
7:18 9 10 mph 1024.4mb 45f 40f
7:12 8 10 mph 1024.3mb 45f 40f
7:06 8 9 mph 1024.3mb 45f 40f
7:00 5 8 mph 1024.2mb 45f 40f
6:54 7 9 mph 1024.1mb 45f 40f
6:48 6 10 mph 1023.9mb 45f 40f
6:36 9 11 mph 1023.8mb 45f 40f
6:30 11 14 mph 1023.6mb 45f 40f
6:24 13 14 mph 1023.9mb 45f 40f
6:18 10 13 mph 1024mb 45f 40f
6:12 9 14 mph 1023.9mb 45f 41f
6:06 11 14 mph 1023.6mb 45f 41f
6:00 13 15 mph 1023.8mb 45f 41f
5:54 11 14 mph 1024mb 45f 42f
5:48 11 15 mph 1023.7mb 45f 42f
5:36 14 21 mph 1023.7mb 45f 42f
5:30 16 20 mph 1023.8mb 45f 43f
5:24 15 18 mph 1024mb 45f 43f
5:18 11 14 mph 1024.7mb 45f 43f
5:12 10 11 mph 1024.8mb 45f 44f
5:06 10 11 mph 1024.9mb 45f 44f
5:00 9 10 mph 1025mb 45f 44f
4:54 9 10 mph 1025.1mb 45f 44f
4:48 7 8 mph 1025.3mb 45f 44f
4:36 6 7 mph 1025.4mb 45f 44f
4:30 6 7 mph 1025.4mb 45f 44f
4:24 6 7 mph 1025.3mb 45f 44f
4:18 7 8 mph 1025.1mb 45f 45f
4:12 6 7 mph 1025.1mb 46f 45f
4:06 6 7 mph 1025.1mb 46f 46f
4:00 5 7 mph 1025mb 46f 46f
3:54 7
mph
1024.9mb 46f 46f
3:48 6 8 mph 1024.9mb 46f 46f
3:36 7 10 mph 1024.8mb 46f 46f
3:30 7 9 mph 1024.8mb 46f 47f
3:24 7 10 mph 1024.8mb 46f 46f
3:18 9 10 mph 1024.8mb 46f 46f
3:12 8 10 mph 1024.8mb 46f 46f
3:06 7 11 mph 1024.6mb 46f 46f